Time;durP1;ratioP1;P1;durP2;ratioP2;P2;SDS_P1;SDS_P2;PMS_P1;PMS_P2;Temp;Humidity;BMP_temperature;BMP_pressure;BME280_temperature;BME280_humidity;BME280_pressure;Samples;Min_cycle;Max_cycle;Signal;HPM_P1;HPM_P2
2023/03/08 00:01:40;;;;;;;12.82;6.03;;;20.40;62.10;;;;;;6302846;22;20011;-75
2023/03/08 00:04:06;;;;;;;9.73;5.70;;;20.40;62.10;;;;;;6275442;22;20007;-75
2023/03/08 00:06:31;;;;;;;10.38;5.43;;;20.40;62.00;;;;;;6302818;22;20007;-75
2023/03/08 00:08:59;;;;;;;11.18;5.55;;;20.40;62.00;;;;;;6301999;22;20399;-75
2023/03/08 00:11:26;;;;;;;10.05;6.00;;;20.40;62.10;;;;;;6302470;22;20000;-76
2023/03/08 00:13:51;;;;;;;9.10;5.47;;;20.40;62.00;;;;;;6275276;22;20026;-75
2023/03/08 00:16:17;;;;;;;9.95;5.60;;;20.40;62.00;;;;;;6302313;22;20026;-73
2023/03/08 00:18:43;;;;;;;9.30;5.70;;;20.40;62.00;;;;;;6304199;22;20334;-74
2023/03/08 00:21:13;;;;;;;8.45;5.13;;;20.50;61.80;;;;;;6306964;22;20003;-73
2023/03/08 00:23:39;;;;;;;13.55;5.50;;;20.40;61.80;;;;;;6306579;22;20463;-73
2023/03/08 00:26:05;;;;;;;14.00;5.00;;;20.40;61.80;;;;;;6306864;22;20494;-73
2023/03/08 00:28:31;;;;;;;10.05;5.85;;;20.40;62.40;;;;;;6306267;22;20306;-73
2023/03/08 00:31:00;;;;;;;11.43;5.55;;;20.40;61.90;;;;;;6279293;22;20003;-73
2023/03/08 00:33:27;;;;;;;11.98;5.35;;;20.40;62.60;;;;;;6279309;22;20004;-73
2023/03/08 00:35:57;;;;;;;12.63;5.68;;;20.40;61.90;;;;;;6254014;22;20010;-73
2023/03/08 00:38:24;;;;;;;12.10;5.75;;;20.40;61.90;;;;;;6279185;22;20011;-73
2023/03/08 00:40:50;;;;;;;12.30;5.35;;;20.40;62.50;;;;;;6279928;22;20008;-73
2023/03/08 00:43:15;;;;;;;10.55;5.90;;;20.40;61.80;;;;;;6306853;22;20003;-73
2023/03/08 00:45:41;;;;;;;9.98;5.28;;;20.30;61.70;;;;;;6306832;22;20003;-74
2023/03/08 00:48:07;;;;;;;11.05;5.03;;;20.40;61.80;;;;;;6278350;22;20383;-73
2023/03/08 00:50:33;;;;;;;10.13;5.47;;;20.40;61.70;;;;;;6279375;22;19995;-73
2023/03/08 00:52:58;;;;;;;10.23;5.22;;;20.40;61.80;;;;;;6279440;22;20000;-74
2023/03/08 00:55:24;;;;;;;14.38;5.50;;;20.40;61.80;;;;;;6228516;22;20007;-73
2023/03/08 00:57:50;;;;;;;10.55;5.35;;;20.40;61.80;;;;;;6306221;22;20003;-73
2023/03/08 01:00:16;;;;;;;9.25;5.50;;;20.40;61.70;;;;;;6306945;22;20015;-73
2023/03/08 01:02:42;;;;;;;10.38;5.68;;;20.40;61.70;;;;;;6253741;22;20011;-73
2023/03/08 01:05:08;;;;;;;13.63;5.30;;;20.30;61.60;;;;;;6279261;22;20056;-73
2023/03/08 01:07:34;;;;;;;9.68;5.45;;;20.40;61.70;;;;;;6305909;22;20007;-74
2023/03/08 01:10:00;;;;;;;9.82;5.30;;;20.30;61.50;;;;;;6306361;22;20070;-73
2023/03/08 01:12:26;;;;;;;12.10;5.35;;;20.30;61.50;;;;;;6279267;22;20491;-73
2023/03/08 01:14:52;;;;;;;9.48;5.43;;;20.30;61.40;;;;;;6279250;22;20000;-73
2023/03/08 01:17:18;;;;;;;7.63;4.95;;;20.30;61.50;;;;;;6279334;22;20218;-73
2023/03/08 01:19:44;;;;;;;8.63;5.18;;;20.30;61.40;;;;;;6306077;22;20330;-73
2023/03/08 01:22:10;;;;;;;8.63;4.65;;;20.30;61.30;;;;;;6279292;22;20053;-74
2023/03/08 01:24:37;;;;;;;10.07;5.10;;;20.30;61.30;;;;;;6253927;22;20349;-73
2023/03/08 01:27:03;;;;;;;9.38;4.90;;;20.30;61.40;;;;;;6278965;22;19999;-73
2023/03/08 01:29:28;;;;;;;10.32;4.63;;;20.30;61.40;;;;;;6301850;22;20440;-70
2023/03/08 01:31:57;;;;;;;12.95;4.90;;;20.30;61.20;;;;;;6243259;23;20026;-73
2023/03/08 01:34:22;;;;;;;7.40;4.65;;;20.40;61.40;;;;;;6218004;23;20000;-72
2023/03/08 01:36:48;;;;;;;9.00;4.60;;;20.30;61.60;;;;;;6243301;23;20004;-73
2023/03/08 01:39:17;;;;;;;10.70;4.85;;;20.30;61.40;;;;;;6243106;22;20167;-73
2023/03/08 01:41:42;;;;;;;11.05;4.82;;;20.40;61.50;;;;;;6268668;22;20028;-72
2023/03/08 01:44:14;;;;;;;7.93;4.28;;;20.40;61.40;;;;;;6243374;23;20004;-73
2023/03/08 01:46:40;;;;;;;12.20;5.05;;;20.40;61.30;;;;;;6243244;23;20008;-74
2023/03/08 01:49:21;;;;;;;8.50;4.43;;;20.40;61.30;;;;;;6242914;22;20206;-72
2023/03/08 01:52:01;;;;;;;8.02;4.63;;;20.40;61.40;;;;;;6269032;22;20004;-73
2023/03/08 01:54:35;;;;;;;7.43;4.50;;;20.40;61.20;;;;;;6243026;23;20011;-73
2023/03/08 01:57:05;;;;;;;8.77;4.65;;;20.40;61.10;;;;;;6268506;22;20000;-73
2023/03/08 01:59:33;;;;;;;12.38;4.55;;;20.40;61.20;;;;;;6242442;22;20054;-73
2023/03/08 02:02:01;;;;;;;6.85;4.20;;;20.40;61.10;;;;;;6243049;23;20000;-73
2023/03/08 02:04:27;;;;;;;7.97;4.40;;;20.30;61.10;;;;;;6242893;23;20054;-73
2023/03/08 02:06:54;;;;;;;7.00;3.80;;;20.30;61.00;;;;;;6268641;22;20005;-73
2023/03/08 02:09:22;;;;;;;9.25;4.32;;;20.40;61.10;;;;;;6267846;22;20015;-73
2023/03/08 02:11:48;;;;;;;6.95;4.18;;;20.40;61.40;;;;;;6268493;22;20000;-73
2023/03/08 02:14:14;;;;;;;6.80;4.00;;;20.30;61.20;;;;;;6217535;23;20082;-73
2023/03/08 02:16:43;;;;;;;7.10;4.18;;;20.40;61.20;;;;;;6243243;23;20041;-73
2023/03/08 02:19:44;;;;;;;13.07;4.88;;;20.30;61.30;;;;;;6267919;22;20377;-73
2023/03/08 02:22:12;;;;;;;8.27;4.50;;;20.30;61.10;;;;;;6236253;23;20019;-73
2023/03/08 02:24:38;;;;;;;6.65;4.05;;;20.30;61.20;;;;;;6242634;23;20012;-73
2023/03/08 02:27:13;;;;;;;8.10;4.18;;;20.30;61.50;;;;;;6242569;23;20012;-73
2023/03/08 02:29:39;;;;;;;8.20;4.53;;;20.30;61.20;;;;;;6242147;22;20012;-73
2023/03/08 02:32:05;;;;;;;8.73;4.20;;;20.30;61.20;;;;;;6242650;23;20462;-72
2023/03/08 02:34:31;;;;;;;7.30;4.35;;;20.40;61.30;;;;;;6242746;23;20019;-73
2023/03/08 02:36:57;;;;;;;7.82;4.20;;;20.30;61.20;;;;;;6242627;23;20004;-71
2023/03/08 02:39:23;;;;;;;7.93;4.20;;;20.30;61.20;;;;;;6267700;22;20417;-71
2023/03/08 02:41:49;;;;;;;8.20;4.68;;;20.40;61.40;;;;;;6244161;23;20008;-72
2023/03/08 02:44:14;;;;;;;7.03;4.25;;;20.40;61.20;;;;;;6244157;23;20334;-72
2023/03/08 02:46:40;;;;;;;7.93;4.20;;;20.40;61.20;;;;;;6242493;23;20465;-72
2023/03/08 02:49:06;;;;;;;9.23;4.22;;;20.40;61.20;;;;;;6267462;22;20091;-73
2023/03/08 02:51:32;;;;;;;8.05;3.78;;;20.40;60.90;;;;;;6267827;22;20126;-72
2023/03/08 02:53:58;;;;;;;7.43;3.83;;;20.30;60.90;;;;;;6243018;23;20011;-73
2023/03/08 02:56:24;;;;;;;8.07;4.15;;;20.40;60.90;;;;;;6268072;22;20004;-73
2023/03/08 02:58:50;;;;;;;7.28;3.95;;;20.30;61.00;;;;;;6241878;23;20035;-73
2023/03/08 03:01:16;;;;;;;8.02;4.07;;;20.30;61.10;;;;;;6242449;22;20008;-72
2023/03/08 03:03:42;;;;;;;7.80;3.88;;;20.30;61.10;;;;;;6242349;23;20019;-73
2023/03/08 03:06:15;;;;;;;7.47;4.03;;;20.30;61.10;;;;;;6267940;22;20004;-73
2023/03/08 03:08:44;;;;;;;6.20;3.80;;;20.30;61.10;;;;;;6241896;23;20394;-72
2023/03/08 03:11:15;;;;;;;7.38;4.30;;;20.30;61.20;;;;;;6267880;22;20427;-73
2023/03/08 03:13:41;;;;;;;6.80;3.88;;;20.30;61.30;;;;;;6242286;23;20008;-72
2023/03/08 03:16:09;;;;;;;7.65;4.30;;;20.30;61.20;;;;;;6242378;23;20011;-73
2023/03/08 03:18:36;;;;;;;5.30;3.50;;;20.30;61.20;;;;;;6241817;23;20015;-73
2023/03/08 03:21:11;;;;;;;9.93;3.83;;;20.30;61.20;;;;;;6242200;22;20078;-73
2023/03/08 03:23:37;;;;;;;8.85;3.28;;;20.30;61.30;;;;;;6267941;22;20058;-73
2023/03/08 03:26:12;;;;;;;7.25;3.88;;;20.30;61.10;;;;;;6267648;22;20083;-73
2023/03/08 03:28:39;;;;;;;5.32;3.45;;;20.30;61.20;;;;;;6267857;22;20012;-73
2023/03/08 03:31:12;;;;;;;7.28;3.65;;;20.30;61.10;;;;;;6243537;22;20342;-73
2023/03/08 03:33:38;;;;;;;5.55;3.40;;;20.30;61.10;;;;;;6242277;23;20015;-72
2023/03/08 03:36:06;;;;;;;8.73;3.83;;;20.30;61.20;;;;;;6241952;23;20008;-72
2023/03/08 03:38:33;;;;;;;7.15;3.30;;;20.30;61.10;;;;;;6241420;23;20019;-73
2023/03/08 03:41:11;;;;;;;7.88;4.20;;;20.30;61.10;;;;;;6267879;22;20058;-73
2023/03/08 03:43:38;;;;;;;6.25;3.65;;;20.30;60.90;;;;;;6242339;23;20007;-73
2023/03/08 03:46:11;;;;;;;5.85;3.85;;;20.30;60.90;;;;;;6242297;23;20062;-73
2023/03/08 03:48:38;;;;;;;5.68;3.70;;;20.30;60.90;;;;;;6267755;22;20011;-72
2023/03/08 03:51:08;;;;;;;6.68;3.80;;;20.30;60.90;;;;;;6241941;22;20012;-73
2023/03/08 03:53:36;;;;;;;5.07;3.30;;;20.40;61.10;;;;;;6242370;22;20495;-72
2023/03/08 03:56:05;;;;;;;6.82;3.47;;;20.30;61.10;;;;;;6242242;23;20008;-72
2023/03/08 03:58:31;;;;;;;6.28;3.65;;;20.30;61.10;;;;;;6241955;23;20008;-73
2023/03/08 04:00:57;;;;;;;5.20;3.28;;;20.40;61.00;;;;;;6268051;22;20345;-74
2023/03/08 04:03:29;;;;;;;6.20;3.55;;;20.30;60.90;;;;;;6242445;23;20074;-72
2023/03/08 04:06:07;;;;;;;6.63;3.47;;;20.30;60.90;;;;;;6267621;22;20035;-72
2023/03/08 04:08:40;;;;;;;5.93;3.45;;;20.30;60.80;;;;;;6242036;23;20401;-72
2023/03/08 04:11:16;;;;;;;6.00;3.70;;;20.30;60.80;;;;;;6217096;23;20382;-71
2023/03/08 04:13:42;;;;;;;5.40;3.45;;;20.30;60.90;;;;;;6268093;22;20005;-71
2023/03/08 04:16:14;;;;;;;5.25;3.50;;;20.40;60.90;;;;;;6242468;23;20008;-71
2023/03/08 04:18:41;;;;;;;5.22;3.50;;;20.30;60.80;;;;;;6268123;22;20023;-71
2023/03/08 04:21:08;;;;;;;4.82;2.95;;;20.30;60.90;;;;;;6248741;22;20012;-72
2023/03/08 04:23:35;;;;;;;6.60;3.55;;;20.30;60.90;;;;;;6246010;23;20008;-71
2023/03/08 04:26:04;;;;;;;7.05;3.47;;;20.30;60.90;;;;;;6269853;22;20016;-71
2023/03/08 04:28:30;;;;;;;4.78;3.00;;;20.30;61.00;;;;;;6269350;22;20377;-73
2023/03/08 04:30:56;;;;;;;6.10;3.15;;;20.30;60.90;;;;;;6243813;22;20195;-72
2023/03/08 04:33:22;;;;;;;5.00;3.30;;;20.30;60.90;;;;;;6269520;22;20007;-71
2023/03/08 04:35:50;;;;;;;7.50;3.10;;;20.30;60.90;;;;;;6219164;23;20521;-71
2023/03/08 04:38:19;;;;;;;8.13;3.30;;;20.30;61.60;;;;;;6268379;22;20004;-72
2023/03/08 04:41:00;;;;;;;4.47;2.75;;;20.30;61.10;;;;;;6269952;22;20075;-72
2023/03/08 04:43:32;;;;;;;5.60;2.80;;;20.30;61.00;;;;;;6268743;22;20016;-72
2023/03/08 04:45:59;;;;;;;7.35;3.08;;;20.30;61.00;;;;;;6218642;23;20034;-71
2023/03/08 04:48:25;;;;;;;4.22;2.97;;;20.30;61.00;;;;;;6269401;22;20079;-72
2023/03/08 04:50:56;;;;;;;5.95;3.30;;;20.30;60.90;;;;;;6243638;22;20019;-71
2023/03/08 04:53:24;;;;;;;6.75;3.33;;;20.30;61.00;;;;;;6269405;22;20028;-72
2023/03/08 04:55:50;;;;;;;5.78;3.13;;;20.30;60.90;;;;;;6269604;22;20656;-72
2023/03/08 04:58:18;;;;;;;4.90;2.92;;;20.30;60.80;;;;;;6269191;22;20093;-72
2023/03/08 05:00:43;;;;;;;5.43;3.30;;;20.30;60.80;;;;;;6269394;22;20505;-72
2023/03/08 05:03:10;;;;;;;4.93;3.08;;;20.40;60.90;;;;;;6243987;23;20040;-72
2023/03/08 05:05:35;;;;;;;5.85;2.63;;;20.40;60.80;;;;;;6269199;22;20038;-71
2023/03/08 05:08:03;;;;;;;7.00;3.00;;;20.40;61.00;;;;;;6242339;23;20004;-71
2023/03/08 05:10:32;;;;;;;5.50;3.00;;;20.40;60.90;;;;;;6242793;22;20368;-71
2023/03/08 05:12:59;;;;;;;6.68;3.35;;;20.30;60.90;;;;;;6244510;23;20057;-71
2023/03/08 05:15:25;;;;;;;6.88;3.20;;;20.40;61.00;;;;;;6269515;22;20004;-71
2023/03/08 05:17:51;;;;;;;5.45;3.10;;;20.40;61.00;;;;;;6269445;22;20430;-72
2023/03/08 05:20:17;;;;;;;6.47;3.38;;;20.40;61.00;;;;;;6243727;22;20488;-71
2023/03/08 05:22:43;;;;;;;4.85;2.90;;;20.30;60.90;;;;;;6243887;23;20034;-72
2023/03/08 05:25:09;;;;;;;4.43;2.85;;;20.30;61.20;;;;;;6269337;22;20338;-71
2023/03/08 05:27:35;;;;;;;4.78;2.60;;;20.40;61.20;;;;;;6268845;22;20083;-72
2023/03/08 05:30:04;;;;;;;4.90;2.60;;;20.40;60.90;;;;;;6243309;22;20036;-72
2023/03/08 05:32:31;;;;;;;3.70;2.50;;;20.30;61.00;;;;;;6243531;23;20008;-72
2023/03/08 05:34:57;;;;;;;4.53;2.50;;;20.30;60.90;;;;;;6268575;22;20000;-71
2023/03/08 05:37:31;;;;;;;6.03;2.95;;;20.30;61.00;;;;;;6219569;23;20012;-72
2023/03/08 05:40:01;;;;;;;4.57;2.97;;;20.30;61.10;;;;;;6243857;22;20032;-72
2023/03/08 05:42:30;;;;;;;4.60;2.60;;;20.30;61.30;;;;;;6268783;22;20418;-72
2023/03/08 05:44:56;;;;;;;4.97;3.00;;;20.30;61.10;;;;;;6273085;22;20331;-73
2023/03/08 05:47:29;;;;;;;4.78;2.72;;;20.30;61.00;;;;;;6250581;23;20079;-73
2023/03/08 05:49:55;;;;;;;5.20;2.97;;;20.30;60.70;;;;;;6246591;22;20000;-73
2023/03/08 05:52:22;;;;;;;5.75;2.70;;;20.30;60.70;;;;;;6269350;22;20031;-73
2023/03/08 05:54:49;;;;;;;4.05;2.63;;;20.30;60.80;;;;;;6243576;23;20004;-72
2023/03/08 05:57:17;;;;;;;4.63;2.57;;;20.30;60.70;;;;;;6268650;22;20008;-72
2023/03/08 05:59:43;;;;;;;5.55;2.70;;;20.30;60.70;;;;;;6242981;22;20007;-72
2023/03/08 06:02:12;;;;;;;5.13;2.58;;;20.30;60.80;;;;;;6268476;22;20004;-72
2023/03/08 06:04:43;;;;;;;4.78;2.90;;;20.30;60.70;;;;;;6243398;23;20015;-73
2023/03/08 06:07:10;;;;;;;6.70;2.72;;;20.30;60.80;;;;;;6243083;23;20015;-73
2023/03/08 06:09:40;;;;;;;4.32;2.60;;;20.30;60.90;;;;;;6243325;22;20004;-73
2023/03/08 06:12:11;;;;;;;5.55;2.70;;;20.30;61.50;;;;;;6267578;22;20035;-72
2023/03/08 06:14:36;;;;;;;4.70;2.70;;;20.30;61.20;;;;;;6244595;23;20011;-73
2023/03/08 06:17:02;;;;;;;4.60;2.60;;;20.30;61.00;;;;;;6268770;22;20038;-73
2023/03/08 06:19:32;;;;;;;5.90;2.55;;;20.30;61.10;;;;;;6242616;22;20346;-73
2023/03/08 06:21:57;;;;;;;6.13;2.95;;;20.30;60.90;;;;;;6268635;22;20004;-73
2023/03/08 06:24:24;;;;;;;3.38;2.30;;;20.30;61.10;;;;;;6242787;23;20050;-73
2023/03/08 06:26:51;;;;;;;4.18;2.67;;;20.30;60.90;;;;;;6242838;23;20019;-72
2023/03/08 06:29:17;;;;;;;5.78;2.95;;;20.30;61.00;;;;;;6267741;22;20011;-73
2023/03/08 06:31:43;;;;;;;4.65;2.72;;;20.30;61.00;;;;;;6268150;22;20003;-72
2023/03/08 06:34:11;;;;;;;4.40;2.45;;;20.30;60.90;;;;;;6244275;23;20346;-72
2023/03/08 06:36:38;;;;;;;5.22;2.72;;;20.30;60.80;;;;;;6242770;23;20004;-72
2023/03/08 06:39:05;;;;;;;5.22;2.70;;;20.30;61.00;;;;;;6243789;22;20008;-72
2023/03/08 06:41:31;;;;;;;4.15;2.70;;;20.30;60.70;;;;;;6242431;22;20031;-72
2023/03/08 06:43:59;;;;;;;4.85;2.47;;;20.30;60.80;;;;;;6242478;23;20028;-72
2023/03/08 06:46:25;;;;;;;3.92;2.28;;;20.30;60.90;;;;;;6267519;22;20008;-72
2023/03/08 06:48:52;;;;;;;4.70;3.03;;;20.30;60.70;;;;;;6267815;22;20322;-72
2023/03/08 06:51:19;;;;;;;6.38;2.90;;;20.30;60.60;;;;;;6242447;22;20521;-71
2023/03/08 06:53:46;;;;;;;4.63;2.42;;;20.30;60.90;;;;;;6242406;23;20015;-71
2023/03/08 06:56:17;;;;;;;3.83;2.33;;;20.30;60.70;;;;;;6268101;22;20525;-72
2023/03/08 06:58:44;;;;;;;4.72;2.40;;;20.30;60.60;;;;;;6267432;22;20028;-72
2023/03/08 07:01:11;;;;;;;4.35;2.67;;;20.30;60.70;;;;;;6242572;22;20346;-71
2023/03/08 07:03:37;;;;;;;4.28;2.53;;;20.30;60.70;;;;;;6243892;23;20028;-72
2023/03/08 07:06:06;;;;;;;6.10;2.58;;;20.30;60.90;;;;;;6243922;23;20338;-72
2023/03/08 07:08:32;;;;;;;6.60;2.30;;;20.30;60.70;;;;;;6241635;23;20319;-71
2023/03/08 07:10:58;;;;;;;4.22;2.80;;;20.30;60.80;;;;;;6243903;22;20227;-72
2023/03/08 07:13:24;;;;;;;4.40;2.30;;;20.30;60.90;;;;;;6242102;23;20016;-72
2023/03/08 07:15:51;;;;;;;8.02;2.60;;;20.30;60.80;;;;;;6244102;23;20031;-72
2023/03/08 07:18:18;;;;;;;3.80;2.40;;;20.30;60.70;;;;;;6267290;22;20047;-72
2023/03/08 07:20:44;;;;;;;12.02;3.10;;;20.30;60.60;;;;;;6243885;22;20008;-72
2023/03/08 07:23:10;;;;;;;5.10;2.35;;;20.30;60.70;;;;;;6241988;23;20019;-72
2023/03/08 07:25:38;;;;;;;5.32;2.63;;;20.30;60.60;;;;;;6237387;23;20079;-72
2023/03/08 07:28:04;;;;;;;5.87;2.70;;;20.30;60.70;;;;;;6212937;23;20087;-72
2023/03/08 07:30:30;;;;;;;6.57;2.47;;;20.30;60.70;;;;;;6251046;22;20089;-75
2023/03/08 07:32:56;;;;;;;4.97;2.53;;;20.30;60.80;;;;;;6273040;22;20058;-77
2023/03/08 07:35:22;;;;;;;5.90;2.40;;;20.30;61.10;;;;;;6274554;22;20000;-77
2023/03/08 07:37:48;;;;;;;8.77;2.58;;;20.30;61.00;;;;;;6246865;22;20004;-77
2023/03/08 07:40:16;;;;;;;4.50;2.53;;;20.30;60.90;;;;;;6255777;22;20011;-75
2023/03/08 07:42:43;;;;;;;8.73;2.40;;;20.30;61.00;;;;;;6305079;22;20007;-75
2023/03/08 07:45:27;;;;;;;5.22;2.33;;;20.30;61.00;;;;;;6305097;22;20068;-75
2023/03/08 07:47:53;;;;;;;4.10;2.53;;;20.30;61.00;;;;;;6304609;22;20011;-74
2023/03/08 07:50:20;;;;;;;3.63;2.28;;;20.30;61.00;;;;;;6277890;22;20026;-75
2023/03/08 07:52:47;;;;;;;7.68;2.72;;;20.40;61.10;;;;;;6252095;22;20018;-75
2023/03/08 07:55:13;;;;;;;5.70;2.50;;;20.30;61.10;;;;;;6252324;22;20094;-74
2023/03/08 07:57:39;;;;;;;4.97;2.65;;;20.40;61.80;;;;;;6306133;22;20341;-74
2023/03/08 08:00:06;;;;;;;4.57;2.55;;;20.40;61.30;;;;;;6279708;22;20007;-74
2023/03/08 08:02:38;;;;;;;4.20;2.65;;;20.40;61.30;;;;;;6307067;22;20013;-74
2023/03/08 08:05:04;;;;;;;4.70;2.70;;;20.40;61.30;;;;;;6279690;22;20030;-74
2023/03/08 08:07:30;;;;;;;4.72;2.47;;;20.40;61.20;;;;;;6306606;22;20007;-74
2023/03/08 08:09:56;;;;;;;4.45;2.67;;;20.40;61.20;;;;;;6279889;22;20030;-77
2023/03/08 08:12:22;;;;;;;4.65;2.70;;;20.40;61.20;;;;;;6307185;22;20048;-77
2023/03/08 08:14:51;;;;;;;3.95;2.50;;;20.40;61.20;;;;;;6307069;22;20083;-77
2023/03/08 08:17:21;;;;;;;4.75;2.75;;;20.40;61.10;;;;;;6279711;22;20017;-77
2023/03/08 08:19:48;;;;;;;5.88;2.88;;;20.40;61.10;;;;;;6254266;22;20099;-77
2023/03/08 08:22:13;;;;;;;5.57;2.63;;;20.40;61.20;;;;;;6307334;22;20003;-77
2023/03/08 08:24:39;;;;;;;5.43;2.85;;;20.40;61.20;;;;;;6306919;22;20092;-77
2023/03/08 08:27:05;;;;;;;4.65;2.70;;;20.40;61.20;;;;;;6306967;22;20382;-76
2023/03/08 08:29:31;;;;;;;4.07;2.63;;;20.40;61.20;;;;;;6279079;22;20007;-76
2023/03/08 08:31:57;;;;;;;5.75;2.85;;;20.40;61.30;;;;;;6279215;22;20011;-76
2023/03/08 08:34:23;;;;;;;5.07;2.42;;;20.40;61.30;;;;;;6279615;22;20334;-76
2023/03/08 08:36:49;;;;;;;4.40;2.40;;;20.40;61.40;;;;;;6253884;22;20007;-75
2023/03/08 08:39:15;;;;;;;10.02;3.05;;;20.40;61.50;;;;;;6306590;22;20007;-76
2023/03/08 08:41:40;;;;;;;5.85;3.10;;;20.40;61.50;;;;;;6279361;22;20018;-76
2023/03/08 08:44:06;;;;;;;5.40;2.83;;;20.40;61.70;;;;;;6279404;22;20492;-75
2023/03/08 08:46:33;;;;;;;5.97;3.00;;;20.40;61.60;;;;;;6306764;22;20015;-74
2023/03/08 08:49:00;;;;;;;5.03;2.92;;;20.40;61.60;;;;;;6306088;22;20003;-74
2023/03/08 08:51:27;;;;;;;8.32;2.90;;;20.40;61.60;;;;;;6306602;22;20003;-77
2023/03/08 08:53:53;;;;;;;6.03;2.65;;;20.40;61.60;;;;;;6253721;22;20003;-76
2023/03/08 08:56:22;;;;;;;6.57;2.63;;;20.40;61.70;;;;;;6253736;22;20013;-76
2023/03/08 08:58:48;;;;;;;5.53;2.85;;;20.40;61.70;;;;;;6279158;22;20345;-77
2023/03/08 09:01:22;;;;;;;5.13;2.60;;;20.50;61.70;;;;;;6279384;22;20082;-76
2023/03/08 09:03:49;;;;;;;4.00;2.80;;;20.50;61.70;;;;;;6306666;22;20014;-77
2023/03/08 09:06:18;;;;;;;10.73;3.10;;;20.50;61.70;;;;;;6306655;22;20011;-76
2023/03/08 09:08:48;;;;;;;7.28;3.33;;;20.40;61.70;;;;;;6305640;22;20014;-76
2023/03/08 09:11:14;;;;;;;;;;;20.50;61.70;;;;;;6280863;22;20003;-76
2023/03/08 09:13:41;;;;;;;5.50;2.90;;;20.50;61.70;;;;;;6306531;22;19902;-76
2023/03/08 09:16:36;;;;;;;4.90;2.72;;;20.40;61.60;;;;;;6253640;22;20052;-76
2023/03/08 09:19:03;;;;;;;5.13;2.95;;;20.50;61.70;;;;;;6280511;22;20012;-76
2023/03/08 09:21:31;;;;;;;5.85;2.90;;;20.50;61.80;;;;;;6280113;22;20066;-76
2023/03/08 09:24:02;;;;;;;4.88;2.90;;;20.50;61.80;;;;;;6307019;22;20015;-76
2023/03/08 09:26:30;;;;;;;5.63;2.90;;;20.50;61.70;;;;;;6280028;22;20015;-76
2023/03/08 09:28:57;;;;;;;4.90;3.00;;;20.50;61.80;;;;;;6253603;22;20098;-76
2023/03/08 09:31:24;;;;;;;4.07;2.85;;;20.50;61.70;;;;;;6278919;22;20068;-76
2023/03/08 09:33:50;;;;;;;7.00;3.00;;;20.40;61.50;;;;;;6279087;22;20003;-76
2023/03/08 09:36:17;;;;;;;7.13;2.90;;;20.40;61.50;;;;;;6253536;22;20094;-76
2023/03/08 09:38:45;;;;;;;7.90;3.35;;;20.50;61.60;;;;;;6278592;22;20061;-76
2023/03/08 09:41:11;;;;;;;7.70;3.25;;;20.40;61.40;;;;;;6278940;22;20034;-74
2023/03/08 09:43:52;;;;;;;8.55;3.47;;;20.40;61.20;;;;;;6306141;22;20449;-74
2023/03/08 09:46:27;;;;;;;12.10;3.50;;;20.50;62.70;;;;;;6279807;22;20017;-74
2023/03/08 09:48:59;;;;;;;11.75;3.33;;;20.60;63.30;;;;;;6252890;22;20065;-74
2023/03/08 09:51:33;;;;;;;12.88;3.97;;;20.70;63.40;;;;;;6278764;22;20007;-74
2023/03/08 09:54:05;;;;;;;12.20;4.15;;;20.70;64.60;;;;;;6278786;22;20007;-74
2023/03/08 09:56:36;;;;;;;11.70;3.72;;;20.70;62.80;;;;;;6306068;22;20078;-74
2023/03/08 09:59:14;;;;;;;13.77;4.30;;;20.60;63.70;;;;;;6278249;22;20353;-75
2023/03/08 10:02:12;;;;;;;13.35;3.30;;;20.60;63.50;;;;;;6278782;22;20064;-75
2023/03/08 10:04:51;;;;;;;15.15;3.95;;;20.60;62.40;;;;;;6278901;22;20478;-75
2023/03/08 10:07:45;;;;;;;18.52;4.00;;;20.60;62.10;;;;;;6227770;22;20082;-74
2023/03/08 10:10:49;;;;;;;21.85;5.00;;;20.60;61.90;;;;;;6278821;22;20362;-77
2023/03/08 10:13:41;;;;;;;29.73;4.90;;;20.50;61.30;;;;;;6304135;22;20346;-77
2023/03/08 10:16:34;;;;;;;16.17;4.43;;;20.50;61.60;;;;;;6305868;22;20098;-74
2023/03/08 10:19:22;;;;;;;18.10;4.07;;;20.50;61.60;;;;;;6227049;22;20038;-74
2023/03/08 10:21:50;;;;;;;14.25;3.25;;;20.50;61.60;;;;;;6305615;22;20007;-74
2023/03/08 10:24:25;;;;;;;11.43;3.85;;;20.50;61.00;;;;;;6305607;22;20056;-75
2023/03/08 10:27:12;;;;;;;23.45;4.25;;;20.50;61.30;;;;;;6252954;22;20014;-76
2023/03/08 10:29:38;;;;;;;10.32;4.18;;;20.50;60.90;;;;;;6280777;22;20007;-76
2023/03/08 10:32:04;;;;;;;10.63;3.60;;;20.50;60.40;;;;;;6305640;22;20340;-76
2023/03/08 10:34:31;;;;;;;15.75;4.13;;;20.50;60.50;;;;;;6305614;22;20013;-76
2023/03/08 10:37:03;;;;;;;20.60;5.43;;;20.50;60.00;;;;;;6305885;22;20003;-76
2023/03/08 10:39:29;;;;;;;23.52;4.93;;;20.50;59.90;;;;;;6305037;22;20166;-76
2023/03/08 10:41:57;;;;;;;30.52;4.93;;;20.50;59.80;;;;;;6305447;22;20049;-76
2023/03/08 10:44:51;;;;;;;23.48;5.30;;;20.50;59.80;;;;;;6278364;22;20018;-76
2023/03/08 10:47:29;;;;;;;22.13;5.32;;;20.50;59.80;;;;;;6252637;22;20314;-76
2023/03/08 10:50:05;;;;;;;24.98;4.93;;;20.50;60.00;;;;;;6252443;22;20345;-77
2023/03/08 10:52:31;;;;;;;16.05;4.60;;;20.40;59.70;;;;;;6305590;22;20003;-76
2023/03/08 10:55:18;;;;;;;21.40;4.70;;;20.40;59.30;;;;;;6278249;22;20010;-76
2023/03/08 10:57:53;;;;;;;24.75;4.65;;;20.40;59.10;;;;;;6277946;22;20003;-76
2023/03/08 11:00:19;;;;;;;27.67;5.75;;;20.40;59.00;;;;;;6305695;22;20017;-76
2023/03/08 11:02:47;;;;;;;32.05;6.68;;;20.50;61.10;;;;;;6278079;22;20090;-76
2023/03/08 11:05:27;;;;;;;32.00;5.70;;;20.50;66.90;;;;;;6252567;22;20010;-76
2023/03/08 11:07:55;;;;;;;20.50;5.75;;;20.50;63.50;;;;;;6305136;22;20008;-76
2023/03/08 11:10:24;;;;;;;30.60;5.63;;;20.50;61.10;;;;;;6305317;22;20064;-76
2023/03/08 11:13:19;;;;;;;92.53;8.65;;;20.60;63.00;;;;;;6253048;22;20065;-76
2023/03/08 11:15:55;;;;;;;30.05;5.88;;;20.50;66.40;;;;;;6305335;22;20025;-77
2023/03/08 11:18:29;;;;;;;57.72;7.45;;;20.50;68.40;;;;;;6251996;22;20011;-77
2023/03/08 11:21:02;;;;;;;44.80;7.22;;;20.50;68.20;;;;;;6277864;22;20060;-76
2023/03/08 11:23:31;;;;;;;34.03;6.35;;;20.50;68.80;;;;;;6305290;22;20132;-76
2023/03/08 11:26:26;;;;;;;41.13;6.85;;;20.50;68.50;;;;;;6278202;22;20011;-76
2023/03/08 11:28:52;;;;;;;40.55;7.63;;;20.50;67.90;;;;;;6304830;22;20007;-76
2023/03/08 11:31:29;;;;;;;37.72;8.02;;;20.60;68.20;;;;;;6304845;22;20014;-75
2023/03/08 11:34:17;;;;;;;40.35;9.05;;;20.60;71.00;;;;;;6253508;22;19999;-76
2023/03/08 11:37:10;;;;;;;50.00;8.93;;;20.60;76.50;;;;;;6278073;22;20014;-76
2023/03/08 11:39:59;;;;;;;29.35;7.05;;;20.60;76.00;;;;;;6305151;22;20007;-80
2023/03/08 11:42:43;;;;;;;46.42;8.30;;;20.70;67.30;;;;;;6278645;22;20398;-77
2023/03/08 11:45:12;;;;;;;11.57;3.55;;;20.60;70.00;;;;;;6306233;22;20121;-78
2023/03/08 11:48:03;;;;;;;8.83;3.50;;;20.10;48.00;;;;;;6282110;22;20426;-77
2023/03/08 11:50:44;;;;;;;15.20;5.50;;;19.70;44.60;;;;;;6280502;22;20331;-74
2023/03/08 11:53:48;;;;;;;14.23;4.15;;;19.70;51.60;;;;;;6278582;22;20306;-75
2023/03/08 11:56:39;;;;;;;10.70;3.53;;;20.10;53.10;;;;;;6305348;22;20010;-75
2023/03/08 11:59:24;;;;;;;13.45;4.05;;;20.40;54.60;;;;;;6304843;22;20049;-75
2023/03/08 12:02:05;;;;;;;9.55;3.50;;;20.90;50.70;;;;;;6307136;22;20054;-74
2023/03/08 12:04:54;;;;;;;9.38;3.88;;;21.00;51.20;;;;;;6253731;22;20010;-73
2023/03/08 12:07:46;;;;;;;14.95;4.40;;;21.10;51.30;;;;;;6305735;22;20011;-71
2023/03/08 12:11:08;;;;;;;8.77;4.00;;;21.10;52.30;;;;;;6279274;22;20013;-72
2023/03/08 12:13:45;;;;;;;11.27;4.10;;;21.10;53.60;;;;;;6155504;23;20009;-72
2023/03/08 12:16:30;;;;;;;14.25;4.40;;;20.70;48.10;;;;;;6277958;22;20010;-72
2023/03/08 12:19:10;;;;;;;11.23;4.10;;;20.40;50.30;;;;;;6277502;22;20011;-72
2023/03/08 12:22:03;;;;;;;9.30;4.18;;;20.50;48.80;;;;;;6277712;22;20015;-72
2023/03/08 12:24:52;;;;;;;9.35;4.07;;;20.50;49.20;;;;;;6278507;22;20363;-72
2023/03/08 12:27:42;;;;;;;11.45;4.13;;;20.50;51.30;;;;;;6304536;22;20003;-72
2023/03/08 12:30:15;;;;;;;12.40;3.92;;;20.50;50.70;;;;;;6304802;22;20043;-72
2023/03/08 12:32:42;;;;;;;10.15;3.63;;;20.40;50.60;;;;;;6305063;22;20015;-73
2023/03/08 12:35:28;;;;;;;7.70;3.50;;;20.40;50.90;;;;;;6305213;22;20003;-72
2023/03/08 12:37:58;;;;;;;7.03;3.35;;;20.40;50.90;;;;;;6277435;22;20007;-72
2023/03/08 12:40:40;;;;;;;7.47;3.67;;;20.40;51.10;;;;;;6252095;22;20015;-73
2023/03/08 12:43:13;;;;;;;8.77;3.50;;;20.40;51.20;;;;;;6304941;22;20004;-73
2023/03/08 12:45:42;;;;;;;7.15;3.30;;;20.40;51.60;;;;;;6279550;22;20011;-72
2023/03/08 12:48:22;;;;;;;9.25;3.90;;;20.40;51.80;;;;;;6253272;22;20437;-72
2023/03/08 12:50:57;;;;;;;;;;;20.40;52.20;;;;;;6279918;22;20061;-73
2023/03/08 12:53:35;;;;;;;9.60;4.72;;;20.40;53.10;;;;;;6279210;22;19910;-72
2023/03/08 12:56:10;;;;;;;11.75;4.70;;;20.40;53.20;;;;;;6253765;22;20391;-74
2023/03/08 12:58:46;;;;;;;10.75;4.18;;;20.40;53.80;;;;;;6279215;22;20003;-75
2023/03/08 13:01:37;;;;;;;32.97;5.30;;;20.40;53.00;;;;;;6279278;22;20017;-73
2023/03/08 13:04:06;;;;;;;19.90;4.93;;;20.10;46.20;;;;;;6306953;22;20004;-74